sensor_id;sensor_type;location;lat;lon;timestamp;temperature;humidity
4687;DHT22;2357;47.316;-1.348;2023-02-15T00:01:16;8.40;99.90
4687;DHT22;2357;47.316;-1.348;2023-02-15T00:03:41;8.50;99.90
4687;DHT22;2357;47.316;-1.348;2023-02-15T00:06:07;8.50;99.90
4687;DHT22;2357;47.316;-1.348;2023-02-15T00:08:33;8.30;99.90
4687;DHT22;2357;47.316;-1.348;2023-02-15T00:11:08;8.20;99.90
4687;DHT22;2357;47.316;-1.348;2023-02-15T00:13:34;8.10;99.90
4687;DHT22;2357;47.316;-1.348;2023-02-15T00:16:06;7.50;99.90
4687;DHT22;2357;47.316;-1.348;2023-02-15T00:18:33;7.70;99.90
4687;DHT22;2357;47.316;-1.348;2023-02-15T00:21:03;7.70;99.90
4687;DHT22;2357;47.316;-1.348;2023-02-15T00:23:29;7.40;99.90
4687;DHT22;2357;47.316;-1.348;2023-02-15T00:26:06;7.10;99.90
4687;DHT22;2357;47.316;-1.348;2023-02-15T00:28:32;7.40;99.90
4687;DHT22;2357;47.316;-1.348;2023-02-15T00:31:09;7.50;99.90
4687;DHT22;2357;47.316;-1.348;2023-02-15T00:33:35;7.60;99.90
4687;DHT22;2357;47.316;-1.348;2023-02-15T00:36:02;7.50;99.90
4687;DHT22;2357;47.316;-1.348;2023-02-15T00:38:28;7.40;99.90
4687;DHT22;2357;47.316;-1.348;2023-02-15T00:40:55;7.60;99.90
4687;DHT22;2357;47.316;-1.348;2023-02-15T00:43:21;7.90;99.90
4687;DHT22;2357;47.316;-1.348;2023-02-15T00:45:47;7.90;99.90
4687;DHT22;2357;47.316;-1.348;2023-02-15T00:48:13;7.90;99.90
4687;DHT22;2357;47.316;-1.348;2023-02-15T00:50:39;7.90;99.90
4687;DHT22;2357;47.316;-1.348;2023-02-15T00:53:05;7.70;99.90
4687;DHT22;2357;47.316;-1.348;2023-02-15T00:55:31;7.80;99.90
4687;DHT22;2357;47.316;-1.348;2023-02-15T00:57:56;7.70;99.90
4687;DHT22;2357;47.316;-1.348;2023-02-15T01:00:22;7.70;99.90
4687;DHT22;2357;47.316;-1.348;2023-02-15T01:02:48;7.90;99.90
4687;DHT22;2357;47.316;-1.348;2023-02-15T01:05:14;8.00;99.90
4687;DHT22;2357;47.316;-1.348;2023-02-15T01:07:39;7.90;99.90
4687;DHT22;2357;47.316;-1.348;2023-02-15T01:10:06;7.90;99.90
4687;DHT22;2357;47.316;-1.348;2023-02-15T01:12:33;7.80;99.90
4687;DHT22;2357;47.316;-1.348;2023-02-15T01:14:58;7.40;99.90
4687;DHT22;2357;47.316;-1.348;2023-02-15T01:17:24;7.60;99.90
4687;DHT22;2357;47.316;-1.348;2023-02-15T01:19:50;7.60;99.90
4687;DHT22;2357;47.316;-1.348;2023-02-15T01:22:17;7.70;99.90
4687;DHT22;2357;47.316;-1.348;2023-02-15T01:24:42;7.70;99.90
4687;DHT22;2357;47.316;-1.348;2023-02-15T01:27:08;7.80;99.90
4687;DHT22;2357;47.316;-1.348;2023-02-15T01:29:34;7.80;99.90
4687;DHT22;2357;47.316;-1.348;2023-02-15T01:31:59;7.80;99.90
4687;DHT22;2357;47.316;-1.348;2023-02-15T01:34:25;7.80;99.90
4687;DHT22;2357;47.316;-1.348;2023-02-15T01:36:51;7.70;99.90
4687;DHT22;2357;47.316;-1.348;2023-02-15T01:39:16;7.60;99.90
4687;DHT22;2357;47.316;-1.348;2023-02-15T01:41:42;7.70;99.90
4687;DHT22;2357;47.316;-1.348;2023-02-15T01:47:15;7.60;99.90
4687;DHT22;2357;47.316;-1.348;2023-02-15T01:49:42;7.60;99.90
4687;DHT22;2357;47.316;-1.348;2023-02-15T01:52:13;7.50;99.90
4687;DHT22;2357;47.316;-1.348;2023-02-15T01:54:41;7.50;99.90
4687;DHT22;2357;47.316;-1.348;2023-02-15T01:57:12;7.50;99.90
4687;DHT22;2357;47.316;-1.348;2023-02-15T01:59:39;7.50;99.90
4687;DHT22;2357;47.316;-1.348;2023-02-15T02:02:09;7.40;99.90
4687;DHT22;2357;47.316;-1.348;2023-02-15T02:04:46;7.40;99.90
4687;DHT22;2357;47.316;-1.348;2023-02-15T02:07:14;7.40;99.90
4687;DHT22;2357;47.316;-1.348;2023-02-15T02:09:41;7.30;99.90
4687;DHT22;2357;47.316;-1.348;2023-02-15T02:12:07;7.30;99.90
4687;DHT22;2357;47.316;-1.348;2023-02-15T02:14:33;7.20;99.90
4687;DHT22;2357;47.316;-1.348;2023-02-15T02:17:27;7.30;99.90
4687;DHT22;2357;47.316;-1.348;2023-02-15T02:34:54;6.80;99.90
4687;DHT22;2357;47.316;-1.348;2023-02-15T02:43:05;7.10;99.90
4687;DHT22;2357;47.316;-1.348;2023-02-15T02:45:43;7.10;99.90
4687;DHT22;2357;47.316;-1.348;2023-02-15T02:48:15;7.10;99.90
4687;DHT22;2357;47.316;-1.348;2023-02-15T02:50:42;7.10;99.90
4687;DHT22;2357;47.316;-1.348;2023-02-15T02:53:09;7.10;99.90
4687;DHT22;2357;47.316;-1.348;2023-02-15T02:58:56;6.80;99.90
4687;DHT22;2357;47.316;-1.348;2023-02-15T03:01:32;6.80;99.90
4687;DHT22;2357;47.316;-1.348;2023-02-15T03:04:11;6.80;99.90
4687;DHT22;2357;47.316;-1.348;2023-02-15T03:09:28;6.80;99.90
4687;DHT22;2357;47.316;-1.348;2023-02-15T03:12:00;6.80;99.90
4687;DHT22;2357;47.316;-1.348;2023-02-15T03:14:27;6.70;99.90
4687;DHT22;2357;47.316;-1.348;2023-02-15T03:16:54;6.70;99.90
4687;DHT22;2357;47.316;-1.348;2023-02-15T03:19:26;6.80;99.90
4687;DHT22;2357;47.316;-1.348;2023-02-15T03:22:00;6.80;99.90
4687;DHT22;2357;47.316;-1.348;2023-02-15T03:24:37;6.80;99.90
4687;DHT22;2357;47.316;-1.348;2023-02-15T03:27:10;6.80;99.90
4687;DHT22;2357;47.316;-1.348;2023-02-15T03:29:38;6.80;99.90
4687;DHT22;2357;47.316;-1.348;2023-02-15T03:32:06;6.70;99.90
4687;DHT22;2357;47.316;-1.348;2023-02-15T03:34:32;6.70;99.90
4687;DHT22;2357;47.316;-1.348;2023-02-15T03:42:30;6.60;99.90
4687;DHT22;2357;47.316;-1.348;2023-02-15T03:45:05;6.60;99.90
4687;DHT22;2357;47.316;-1.348;2023-02-15T03:47:38;6.70;99.90
4687;DHT22;2357;47.316;-1.348;2023-02-15T03:50:05;6.60;99.90
4687;DHT22;2357;47.316;-1.348;2023-02-15T03:52:54;6.60;99.90
4687;DHT22;2357;47.316;-1.348;2023-02-15T03:55:21;6.50;99.90
4687;DHT22;2357;47.316;-1.348;2023-02-15T03:57:46;6.30;99.90
4687;DHT22;2357;47.316;-1.348;2023-02-15T04:00:35;6.40;99.90
4687;DHT22;2357;47.316;-1.348;2023-02-15T04:05:49;6.50;99.90
4687;DHT22;2357;47.316;-1.348;2023-02-15T04:08:14;6.60;99.90
4687;DHT22;2357;47.316;-1.348;2023-02-15T04:10:40;6.60;99.90
4687;DHT22;2357;47.316;-1.348;2023-02-15T04:13:23;6.60;99.90
4687;DHT22;2357;47.316;-1.348;2023-02-15T04:15:49;6.60;99.90
4687;DHT22;2357;47.316;-1.348;2023-02-15T04:18:30;6.50;99.90
4687;DHT22;2357;47.316;-1.348;2023-02-15T04:21:15;6.50;99.90
4687;DHT22;2357;47.316;-1.348;2023-02-15T04:23:59;6.40;99.90
4687;DHT22;2357;47.316;-1.348;2023-02-15T04:26:43;6.30;99.90
4687;DHT22;2357;47.316;-1.348;2023-02-15T04:29:09;6.30;99.90
4687;DHT22;2357;47.316;-1.348;2023-02-15T04:31:34;6.20;99.90
4687;DHT22;2357;47.316;-1.348;2023-02-15T04:34:00;6.00;99.90
4687;DHT22;2357;47.316;-1.348;2023-02-15T04:36:25;6.10;99.90
4687;DHT22;2357;47.316;-1.348;2023-02-15T04:38:51;6.10;99.90
4687;DHT22;2357;47.316;-1.348;2023-02-15T04:41:17;6.10;99.90
4687;DHT22;2357;47.316;-1.348;2023-02-15T04:43:42;6.20;99.90
4687;DHT22;2357;47.316;-1.348;2023-02-15T04:46:08;6.20;99.90
4687;DHT22;2357;47.316;-1.348;2023-02-15T04:48:34;5.90;99.90
4687;DHT22;2357;47.316;-1.348;2023-02-15T04:50:59;6.10;99.90
4687;DHT22;2357;47.316;-1.348;2023-02-15T04:53:30;6.10;99.90
4687;DHT22;2357;47.316;-1.348;2023-02-15T04:55:55;6.10;99.90
4687;DHT22;2357;47.316;-1.348;2023-02-15T04:58:21;6.10;99.90
4687;DHT22;2357;47.316;-1.348;2023-02-15T05:00:46;6.10;99.90
4687;DHT22;2357;47.316;-1.348;2023-02-15T05:03:12;6.10;99.90
4687;DHT22;2357;47.316;-1.348;2023-02-15T05:05:37;6.00;99.90
4687;DHT22;2357;47.316;-1.348;2023-02-15T05:08:03;6.00;99.90
4687;DHT22;2357;47.316;-1.348;2023-02-15T05:10:29;6.00;99.90
4687;DHT22;2357;47.316;-1.348;2023-02-15T05:12:54;6.00;99.90
4687;DHT22;2357;47.316;-1.348;2023-02-15T05:15:20;5.80;99.90
4687;DHT22;2357;47.316;-1.348;2023-02-15T05:17:46;5.60;99.90
4687;DHT22;2357;47.316;-1.348;2023-02-15T05:20:11;5.70;99.90
4687;DHT22;2357;47.316;-1.348;2023-02-15T05:22:37;5.80;99.90
4687;DHT22;2357;47.316;-1.348;2023-02-15T05:25:03;5.90;99.90
4687;DHT22;2357;47.316;-1.348;2023-02-15T05:27:47;5.90;99.90
4687;DHT22;2357;47.316;-1.348;2023-02-15T05:30:31;5.80;99.90
4687;DHT22;2357;47.316;-1.348;2023-02-15T05:32:57;5.70;99.90
4687;DHT22;2357;47.316;-1.348;2023-02-15T05:35:22;5.80;99.90
4687;DHT22;2357;47.316;-1.348;2023-02-15T05:37:48;5.90;99.90
4687;DHT22;2357;47.316;-1.348;2023-02-15T05:40:14;5.90;99.90
4687;DHT22;2357;47.316;-1.348;2023-02-15T05:42:39;5.80;99.90
4687;DHT22;2357;47.316;-1.348;2023-02-15T05:45:05;5.80;99.90
4687;DHT22;2357;47.316;-1.348;2023-02-15T05:47:31;5.80;99.90
4687;DHT22;2357;47.316;-1.348;2023-02-15T05:49:57;5.70;99.90
4687;DHT22;2357;47.316;-1.348;2023-02-15T05:52:22;5.80;99.90
4687;DHT22;2357;47.316;-1.348;2023-02-15T05:54:48;5.90;99.90
4687;DHT22;2357;47.316;-1.348;2023-02-15T05:57:13;5.90;99.90
4687;DHT22;2357;47.316;-1.348;2023-02-15T05:59:39;6.00;99.90
4687;DHT22;2357;47.316;-1.348;2023-02-15T06:02:05;6.00;99.90
4687;DHT22;2357;47.316;-1.348;2023-02-15T06:04:32;6.00;99.90
4687;DHT22;2357;47.316;-1.348;2023-02-15T06:06:57;6.00;99.90
4687;DHT22;2357;47.316;-1.348;2023-02-15T06:09:23;5.90;99.90
4687;DHT22;2357;47.316;-1.348;2023-02-15T06:11:48;5.80;99.90
4687;DHT22;2357;47.316;-1.348;2023-02-15T06:14:14;5.80;99.90
4687;DHT22;2357;47.316;-1.348;2023-02-15T06:16:40;5.70;99.90
4687;DHT22;2357;47.316;-1.348;2023-02-15T06:19:05;5.70;99.90
4687;DHT22;2357;47.316;-1.348;2023-02-15T06:21:31;5.60;99.90
4687;DHT22;2357;47.316;-1.348;2023-02-15T06:23:56;5.70;99.90
4687;DHT22;2357;47.316;-1.348;2023-02-15T06:26:22;5.60;99.90
4687;DHT22;2357;47.316;-1.348;2023-02-15T06:28:48;5.50;99.90
4687;DHT22;2357;47.316;-1.348;2023-02-15T06:31:14;5.50;99.90
4687;DHT22;2357;47.316;-1.348;2023-02-15T06:33:40;5.50;99.90
4687;DHT22;2357;47.316;-1.348;2023-02-15T06:36:06;5.60;99.90
4687;DHT22;2357;47.316;-1.348;2023-02-15T06:38:32;5.60;99.90
4687;DHT22;2357;47.316;-1.348;2023-02-15T06:40:58;5.50;99.90
4687;DHT22;2357;47.316;-1.348;2023-02-15T06:43:23;5.50;99.90
4687;DHT22;2357;47.316;-1.348;2023-02-15T06:45:49;5.40;99.90
4687;DHT22;2357;47.316;-1.348;2023-02-15T06:48:15;5.50;99.90
4687;DHT22;2357;47.316;-1.348;2023-02-15T06:50:40;5.60;99.90
4687;DHT22;2357;47.316;-1.348;2023-02-15T06:53:06;5.60;99.90
4687;DHT22;2357;47.316;-1.348;2023-02-15T06:55:32;5.60;99.90
4687;DHT22;2357;47.316;-1.348;2023-02-15T06:57:57;5.50;99.90
4687;DHT22;2357;47.316;-1.348;2023-02-15T07:00:23;5.50;99.90
4687;DHT22;2357;47.316;-1.348;2023-02-15T07:02:55;5.50;99.90
4687;DHT22;2357;47.316;-1.348;2023-02-15T07:05:22;5.50;99.90
4687;DHT22;2357;47.316;-1.348;2023-02-15T07:07:47;5.50;99.90
4687;DHT22;2357;47.316;-1.348;2023-02-15T07:10:13;5.50;99.90
4687;DHT22;2357;47.316;-1.348;2023-02-15T07:12:39;5.50;99.90
4687;DHT22;2357;47.316;-1.348;2023-02-15T07:15:15;5.50;99.90
4687;DHT22;2357;47.316;-1.348;2023-02-15T07:17:41;5.50;99.90
4687;DHT22;2357;47.316;-1.348;2023-02-15T07:22:35;5.50;99.90
4687;DHT22;2357;47.316;-1.348;2023-02-15T07:25:03;5.50;99.90
4687;DHT22;2357;47.316;-1.348;2023-02-15T07:27:29;5.50;99.90
4687;DHT22;2357;47.316;-1.348;2023-02-15T07:29:54;5.50;99.90
4687;DHT22;2357;47.316;-1.348;2023-02-15T07:32:20;5.60;99.90
4687;DHT22;2357;47.316;-1.348;2023-02-15T07:34:45;5.60;99.90
4687;DHT22;2357;47.316;-1.348;2023-02-15T07:37:11;5.60;99.90
4687;DHT22;2357;47.316;-1.348;2023-02-15T07:39:37;5.60;99.90
4687;DHT22;2357;47.316;-1.348;2023-02-15T07:42:02;5.60;99.90
4687;DHT22;2357;47.316;-1.348;2023-02-15T07:44:28;5.60;99.90
4687;DHT22;2357;47.316;-1.348;2023-02-15T07:46:54;5.70;99.90
4687;DHT22;2357;47.316;-1.348;2023-02-15T07:49:19;5.70;99.90
4687;DHT22;2357;47.316;-1.348;2023-02-15T07:51:45;5.70;99.90
4687;DHT22;2357;47.316;-1.348;2023-02-15T07:54:11;5.70;99.90
4687;DHT22;2357;47.316;-1.348;2023-02-15T07:56:37;5.70;99.90
4687;DHT22;2357;47.316;-1.348;2023-02-15T07:59:02;5.60;99.90
4687;DHT22;2357;47.316;-1.348;2023-02-15T08:01:35;5.50;99.90
4687;DHT22;2357;47.316;-1.348;2023-02-15T08:04:02;5.60;99.90
4687;DHT22;2357;47.316;-1.348;2023-02-15T08:06:30;5.60;99.90
4687;DHT22;2357;47.316;-1.348;2023-02-15T08:08:56;5.60;99.90
4687;DHT22;2357;47.316;-1.348;2023-02-15T08:11:27;5.70;99.90
4687;DHT22;2357;47.316;-1.348;2023-02-15T08:14:04;5.70;99.90
4687;DHT22;2357;47.316;-1.348;2023-02-15T08:21:38;5.40;99.90
4687;DHT22;2357;47.316;-1.348;2023-02-15T08:24:05;5.60;99.90
4687;DHT22;2357;47.316;-1.348;2023-02-15T08:26:31;5.80;99.90
4687;DHT22;2357;47.316;-1.348;2023-02-15T08:28:57;5.90;99.90
4687;DHT22;2357;47.316;-1.348;2023-02-15T08:31:23;6.00;99.90
4687;DHT22;2357;47.316;-1.348;2023-02-15T08:33:50;6.10;99.90
4687;DHT22;2357;47.316;-1.348;2023-02-15T08:36:19;6.20;99.90
4687;DHT22;2357;47.316;-1.348;2023-02-15T08:38:45;6.30;99.90
4687;DHT22;2357;47.316;-1.348;2023-02-15T08:41:16;6.40;99.90
4687;DHT22;2357;47.316;-1.348;2023-02-15T08:43:43;6.60;99.90
4687;DHT22;2357;47.316;-1.348;2023-02-15T08:46:10;6.60;99.90
4687;DHT22;2357;47.316;-1.348;2023-02-15T08:48:36;6.70;99.90
4687;DHT22;2357;47.316;-1.348;2023-02-15T08:51:14;6.70;99.90
4687;DHT22;2357;47.316;-1.348;2023-02-15T08:53:42;6.80;99.90
4687;DHT22;2357;47.316;-1.348;2023-02-15T08:56:09;6.90;99.90
4687;DHT22;2357;47.316;-1.348;2023-02-15T08:58:35;7.10;99.90
4687;DHT22;2357;47.316;-1.348;2023-02-15T09:01:02;7.10;99.90
4687;DHT22;2357;47.316;-1.348;2023-02-15T09:03:32;7.20;99.90
4687;DHT22;2357;47.316;-1.348;2023-02-15T09:06:00;7.40;99.90
4687;DHT22;2357;47.316;-1.348;2023-02-15T09:08:26;7.30;99.90
4687;DHT22;2357;47.316;-1.348;2023-02-15T09:10:52;7.30;99.90
4687;DHT22;2357;47.316;-1.348;2023-02-15T09:13:18;7.30;99.90
4687;DHT22;2357;47.316;-1.348;2023-02-15T09:15:44;7.30;99.90
4687;DHT22;2357;47.316;-1.348;2023-02-15T09:18:10;7.30;99.90
4687;DHT22;2357;47.316;-1.348;2023-02-15T09:20:37;7.30;99.90
4687;DHT22;2357;47.316;-1.348;2023-02-15T09:23:03;7.30;99.90
4687;DHT22;2357;47.316;-1.348;2023-02-15T09:25:28;7.40;99.90
4687;DHT22;2357;47.316;-1.348;2023-02-15T09:27:54;7.40;99.90
4687;DHT22;2357;47.316;-1.348;2023-02-15T09:30:20;7.60;99.90
4687;DHT22;2357;47.316;-1.348;2023-02-15T09:32:46;7.60;99.90
4687;DHT22;2357;47.316;-1.348;2023-02-15T09:35:12;7.60;99.90
4687;DHT22;2357;47.316;-1.348;2023-02-15T09:37:38;7.70;99.90
4687;DHT22;2357;47.316;-1.348;2023-02-15T09:40:04;7.70;99.90
4687;DHT22;2357;47.316;-1.348;2023-02-15T09:48:21;7.90;99.90
4687;DHT22;2357;47.316;-1.348;2023-02-15T09:51:07;7.90;99.90
4687;DHT22;2357;47.316;-1.348;2023-02-15T09:56:22;8.00;99.90
4687;DHT22;2357;47.316;-1.348;2023-02-15T10:05:01;8.10;99.90
4687;DHT22;2357;47.316;-1.348;2023-02-15T10:07:52;8.20;99.90
4687;DHT22;2357;47.316;-1.348;2023-02-15T10:16:22;8.40;99.90
4687;DHT22;2357;47.316;-1.348;2023-02-15T10:19:30;8.50;99.90
4687;DHT22;2357;47.316;-1.348;2023-02-15T10:22:23;8.60;99.90
4687;DHT22;2357;47.316;-1.348;2023-02-15T10:27:47;8.70;99.90
4687;DHT22;2357;47.316;-1.348;2023-02-15T10:35:28;9.00;99.90
4687;DHT22;2357;47.316;-1.348;2023-02-15T10:38:07;9.10;99.90
4687;DHT22;2357;47.316;-1.348;2023-02-15T10:46:21;9.40;99.90
4687;DHT22;2357;47.316;-1.348;2023-02-15T10:49:26;9.60;99.90
4687;DHT22;2357;47.316;-1.348;2023-02-15T10:52:11;9.70;99.90
4687;DHT22;2357;47.316;-1.348;2023-02-15T10:55:01;9.70;99.90
4687;DHT22;2357;47.316;-1.348;2023-02-15T10:57:44;9.80;99.90
4687;DHT22;2357;47.316;-1.348;2023-02-15T11:08:35;10.30;99.90
4687;DHT22;2357;47.316;-1.348;2023-02-15T11:11:12;10.20;99.90
4687;DHT22;2357;47.316;-1.348;2023-02-15T11:13:45;10.30;99.90
4687;DHT22;2357;47.316;-1.348;2023-02-15T11:16:18;10.50;99.90
4687;DHT22;2357;47.316;-1.348;2023-02-15T11:21:27;10.60;99.90
4687;DHT22;2357;47.316;-1.348;2023-02-15T11:23:54;10.60;99.90
4687;DHT22;2357;47.316;-1.348;2023-02-15T11:26:31;10.50;99.90
4687;DHT22;2357;47.316;-1.348;2023-02-15T11:29:06;10.70;99.90
4687;DHT22;2357;47.316;-1.348;2023-02-15T11:36:48;10.90;99.90
4687;DHT22;2357;47.316;-1.348;2023-02-15T11:39:18;11.00;99.90
4687;DHT22;2357;47.316;-1.348;2023-02-15T11:41:49;11.00;99.90
4687;DHT22;2357;47.316;-1.348;2023-02-15T11:46:42;11.30;99.90
4687;DHT22;2357;47.316;-1.348;2023-02-15T11:51:53;11.20;99.90
4687;DHT22;2357;47.316;-1.348;2023-02-15T11:54:23;11.10;99.90
4687;DHT22;2357;47.316;-1.348;2023-02-15T11:56:51;11.20;99.90
4687;DHT22;2357;47.316;-1.348;2023-02-15T11:59:27;11.40;99.90
4687;DHT22;2357;47.316;-1.348;2023-02-15T12:01:53;11.50;99.90
4687;DHT22;2357;47.316;-1.348;2023-02-15T12:04:40;11.70;99.90
4687;DHT22;2357;47.316;-1.348;2023-02-15T12:07:34;11.90;99.90
4687;DHT22;2357;47.316;-1.348;2023-02-15T12:10:22;11.90;99.90
4687;DHT22;2357;47.316;-1.348;2023-02-15T12:13:14;11.90;99.90
4687;DHT22;2357;47.316;-1.348;2023-02-15T12:15:59;12.00;99.90
4687;DHT22;2357;47.316;-1.348;2023-02-15T12:18:40;12.00;99.90
4687;DHT22;2357;47.316;-1.348;2023-02-15T12:21:12;12.00;99.90
4687;DHT22;2357;47.316;-1.348;2023-02-15T12:23:50;12.20;99.90
4687;DHT22;2357;47.316;-1.348;2023-02-15T12:26:27;12.30;99.90
4687;DHT22;2357;47.316;-1.348;2023-02-15T12:28:54;12.30;99.90
4687;DHT22;2357;47.316;-1.348;2023-02-15T12:31:41;12.50;99.90
4687;DHT22;2357;47.316;-1.348;2023-02-15T12:34:29;12.70;99.90
4687;DHT22;2357;47.316;-1.348;2023-02-15T12:37:00;12.90;99.90
4687;DHT22;2357;47.316;-1.348;2023-02-15T12:39:31;13.00;99.90
4687;DHT22;2357;47.316;-1.348;2023-02-15T12:42:15;13.10;99.90
4687;DHT22;2357;47.316;-1.348;2023-02-15T12:47:19;13.10;99.90
4687;DHT22;2357;47.316;-1.348;2023-02-15T12:50:08;13.10;99.90
4687;DHT22;2357;47.316;-1.348;2023-02-15T12:52:36;13.20;99.90
4687;DHT22;2357;47.316;-1.348;2023-02-15T12:55:23;13.40;99.90
4687;DHT22;2357;47.316;-1.348;2023-02-15T12:58:18;13.50;99.90
4687;DHT22;2357;47.316;-1.348;2023-02-15T13:00:45;13.60;99.90
4687;DHT22;2357;47.316;-1.348;2023-02-15T13:03:21;13.60;99.90
4687;DHT22;2357;47.316;-1.348;2023-02-15T13:05:54;13.80;99.90
4687;DHT22;2357;47.316;-1.348;2023-02-15T13:08:30;13.90;99.90
4687;DHT22;2357;47.316;-1.348;2023-02-15T13:11:03;14.10;99.90
4687;DHT22;2357;47.316;-1.348;2023-02-15T13:13:35;14.10;99.90
4687;DHT22;2357;47.316;-1.348;2023-02-15T13:16:12;14.40;99.90
4687;DHT22;2357;47.316;-1.348;2023-02-15T13:18:42;14.50;99.90
4687;DHT22;2357;47.316;-1.348;2023-02-15T13:21:18;14.70;99.90
4687;DHT22;2357;47.316;-1.348;2023-02-15T13:23:48;14.90;99.90
4687;DHT22;2357;47.316;-1.348;2023-02-15T13:26:18;15.10;99.90
4687;DHT22;2357;47.316;-1.348;2023-02-15T13:28:54;15.50;99.90
4687;DHT22;2357;47.316;-1.348;2023-02-15T13:31:26;15.60;99.90
4687;DHT22;2357;47.316;-1.348;2023-02-15T13:34:12;16.20;99.90
4687;DHT22;2357;47.316;-1.348;2023-02-15T13:39:38;17.10;99.90
4687;DHT22;2357;47.316;-1.348;2023-02-15T13:47:56;19.00;99.90
4687;DHT22;2357;47.316;-1.348;2023-02-15T13:53:34;19.70;99.90
4687;DHT22;2357;47.316;-1.348;2023-02-15T14:02:57;20.50;99.90
4687;DHT22;2357;47.316;-1.348;2023-02-15T14:08:08;20.10;99.90
4687;DHT22;2357;47.316;-1.348;2023-02-15T14:13:16;18.00;99.90
4687;DHT22;2357;47.316;-1.348;2023-02-15T14:15:53;17.50;99.90
4687;DHT22;2357;47.316;-1.348;2023-02-15T14:21:31;16.90;99.90
4687;DHT22;2357;47.316;-1.348;2023-02-15T14:24:16;16.70;99.90
4687;DHT22;2357;47.316;-1.348;2023-02-15T14:26:48;16.50;99.90
4687;DHT22;2357;47.316;-1.348;2023-02-15T14:31:57;16.60;99.90
4687;DHT22;2357;47.316;-1.348;2023-02-15T14:34:36;16.60;99.90
4687;DHT22;2357;47.316;-1.348;2023-02-15T14:37:04;16.60;99.90
4687;DHT22;2357;47.316;-1.348;2023-02-15T14:42:51;16.60;99.90
4687;DHT22;2357;47.316;-1.348;2023-02-15T14:45:22;16.60;99.90
4687;DHT22;2357;47.316;-1.348;2023-02-15T14:48:20;16.50;99.90
4687;DHT22;2357;47.316;-1.348;2023-02-15T14:50:48;16.60;99.90
4687;DHT22;2357;47.316;-1.348;2023-02-15T14:55:47;16.50;99.90
4687;DHT22;2357;47.316;-1.348;2023-02-15T14:58:13;16.50;99.90
4687;DHT22;2357;47.316;-1.348;2023-02-15T15:00:40;16.60;99.90
4687;DHT22;2357;47.316;-1.348;2023-02-15T15:03:36;16.60;99.90
4687;DHT22;2357;47.316;-1.348;2023-02-15T15:06:30;16.60;99.90
4687;DHT22;2357;47.316;-1.348;2023-02-15T15:11:51;16.60;99.90
4687;DHT22;2357;47.316;-1.348;2023-02-15T15:22:24;16.60;99.90
4687;DHT22;2357;47.316;-1.348;2023-02-15T15:24:55;19.00;99.90
4687;DHT22;2357;47.316;-1.348;2023-02-15T15:27:41;21.40;99.90
4687;DHT22;2357;47.316;-1.348;2023-02-15T15:33:07;21.50;99.90
4687;DHT22;2357;47.316;-1.348;2023-02-15T15:50:20;17.70;99.90
4687;DHT22;2357;47.316;-1.348;2023-02-15T15:52:49;17.40;99.90
4687;DHT22;2357;47.316;-1.348;2023-02-15T15:55:19;17.00;99.90
4687;DHT22;2357;47.316;-1.348;2023-02-15T15:57:48;16.70;99.90
4687;DHT22;2357;47.316;-1.348;2023-02-15T16:03:52;16.40;99.90
4687;DHT22;2357;47.316;-1.348;2023-02-15T16:06:32;16.20;99.90
4687;DHT22;2357;47.316;-1.348;2023-02-15T16:09:13;15.80;99.90
4687;DHT22;2357;47.316;-1.348;2023-02-15T16:11:40;15.60;99.90
4687;DHT22;2357;47.316;-1.348;2023-02-15T16:14:15;15.30;99.90
4687;DHT22;2357;47.316;-1.348;2023-02-15T16:16:47;15.20;99.90
4687;DHT22;2357;47.316;-1.348;2023-02-15T16:19:28;15.10;99.90
4687;DHT22;2357;47.316;-1.348;2023-02-15T16:21:55;15.00;99.90
4687;DHT22;2357;47.316;-1.348;2023-02-15T16:32:44;14.60;99.90
4687;DHT22;2357;47.316;-1.348;2023-02-15T16:35:15;14.50;99.90
4687;DHT22;2357;47.316;-1.348;2023-02-15T16:37:41;14.40;99.90
4687;DHT22;2357;47.316;-1.348;2023-02-15T16:42:54;14.30;99.90
4687;DHT22;2357;47.316;-1.348;2023-02-15T16:45:22;14.20;99.90
4687;DHT22;2357;47.316;-1.348;2023-02-15T16:47:51;14.10;99.90
4687;DHT22;2357;47.316;-1.348;2023-02-15T16:50:21;14.10;99.90
4687;DHT22;2357;47.316;-1.348;2023-02-15T16:52:48;14.00;99.90
4687;DHT22;2357;47.316;-1.348;2023-02-15T16:55:23;13.90;99.90
4687;DHT22;2357;47.316;-1.348;2023-02-15T16:57:50;13.90;99.90
4687;DHT22;2357;47.316;-1.348;2023-02-15T17:00:19;13.90;99.90
4687;DHT22;2357;47.316;-1.348;2023-02-15T17:03:06;13.90;99.90
4687;DHT22;2357;47.316;-1.348;2023-02-15T17:05:51;13.80;99.90
4687;DHT22;2357;47.316;-1.348;2023-02-15T17:10:46;13.60;99.90
4687;DHT22;2357;47.316;-1.348;2023-02-15T17:13:27;13.50;99.90
4687;DHT22;2357;47.316;-1.348;2023-02-15T17:18:39;13.40;99.90
4687;DHT22;2357;47.316;-1.348;2023-02-15T17:21:12;13.40;99.90
4687;DHT22;2357;47.316;-1.348;2023-02-15T17:23:47;13.30;99.90
4687;DHT22;2357;47.316;-1.348;2023-02-15T17:26:23;13.10;99.90
4687;DHT22;2357;47.316;-1.348;2023-02-15T17:28:51;13.10;99.90
4687;DHT22;2357;47.316;-1.348;2023-02-15T17:31:20;13.00;99.90
4687;DHT22;2357;47.316;-1.348;2023-02-15T17:33:46;12.90;99.90
4687;DHT22;2357;47.316;-1.348;2023-02-15T17:36:14;12.90;99.90
4687;DHT22;2357;47.316;-1.348;2023-02-15T17:39:01;12.90;99.90
4687;DHT22;2357;47.316;-1.348;2023-02-15T17:41:33;12.80;99.90
4687;DHT22;2357;47.316;-1.348;2023-02-15T17:44:01;12.80;99.90
4687;DHT22;2357;47.316;-1.348;2023-02-15T17:46:32;12.70;99.90
4687;DHT22;2357;47.316;-1.348;2023-02-15T17:49:00;12.70;99.90
4687;DHT22;2357;47.316;-1.348;2023-02-15T17:51:26;12.70;99.90
4687;DHT22;2357;47.316;-1.348;2023-02-15T17:53:52;12.50;99.90
4687;DHT22;2357;47.316;-1.348;2023-02-15T17:56:37;12.60;99.90
4687;DHT22;2357;47.316;-1.348;2023-02-15T17:59:04;12.70;99.90
4687;DHT22;2357;47.316;-1.348;2023-02-15T18:01:34;12.50;99.90
4687;DHT22;2357;47.316;-1.348;2023-02-15T18:04:20;12.50;99.90
4687;DHT22;2357;47.316;-1.348;2023-02-15T18:07:06;12.50;99.90
4687;DHT22;2357;47.316;-1.348;2023-02-15T18:09:51;12.40;99.90
4687;DHT22;2357;47.316;-1.348;2023-02-15T18:12:35;12.50;99.90
4687;DHT22;2357;47.316;-1.348;2023-02-15T18:15:04;12.40;99.90
4687;DHT22;2357;47.316;-1.348;2023-02-15T18:17:38;12.40;99.90
4687;DHT22;2357;47.316;-1.348;2023-02-15T18:20:32;12.30;99.90
4687;DHT22;2357;47.316;-1.348;2023-02-15T18:22:59;12.30;99.90
4687;DHT22;2357;47.316;-1.348;2023-02-15T18:25:26;12.30;99.90
4687;DHT22;2357;47.316;-1.348;2023-02-15T18:27:52;12.10;99.90
4687;DHT22;2357;47.316;-1.348;2023-02-15T18:30:19;12.10;99.90
4687;DHT22;2357;47.316;-1.348;2023-02-15T18:32:47;12.00;99.90
4687;DHT22;2357;47.316;-1.348;2023-02-15T18:35:20;11.90;99.90
4687;DHT22;2357;47.316;-1.348;2023-02-15T18:37:47;11.90;99.90
4687;DHT22;2357;47.316;-1.348;2023-02-15T18:40:15;11.90;99.90
4687;DHT22;2357;47.316;-1.348;2023-02-15T18:42:42;11.80;99.90
4687;DHT22;2357;47.316;-1.348;2023-02-15T18:45:19;11.90;99.90
4687;DHT22;2357;47.316;-1.348;2023-02-15T18:47:46;11.80;99.90
4687;DHT22;2357;47.316;-1.348;2023-02-15T18:50:16;11.80;99.90
4687;DHT22;2357;47.316;-1.348;2023-02-15T18:52:45;11.70;99.90
4687;DHT22;2357;47.316;-1.348;2023-02-15T18:55:19;11.80;99.90
4687;DHT22;2357;47.316;-1.348;2023-02-15T18:57:47;11.70;99.90
4687;DHT22;2357;47.316;-1.348;2023-02-15T19:00:18;11.80;99.90
4687;DHT22;2357;47.316;-1.348;2023-02-15T19:02:44;11.80;99.90
4687;DHT22;2357;47.316;-1.348;2023-02-15T19:05:10;11.80;99.90
4687;DHT22;2357;47.316;-1.348;2023-02-15T19:07:37;11.80;99.90
4687;DHT22;2357;47.316;-1.348;2023-02-15T19:10:07;11.70;99.90
4687;DHT22;2357;47.316;-1.348;2023-02-15T19:12:33;11.70;99.90
4687;DHT22;2357;47.316;-1.348;2023-02-15T19:14:58;11.60;99.90
4687;DHT22;2357;47.316;-1.348;2023-02-15T19:17:24;11.50;99.90
4687;DHT22;2357;47.316;-1.348;2023-02-15T19:19:51;11.50;99.90
4687;DHT22;2357;47.316;-1.348;2023-02-15T19:22:28;11.40;99.90
4687;DHT22;2357;47.316;-1.348;2023-02-15T19:24:57;11.50;99.90